Time;durP1;ratioP1;P1;durP2;ratioP2;P2;SDS_P1;SDS_P2;PMS_P1;PMS_P2;Temp;Humidity;BMP_temperature;BMP_pressure;BME280_temperature;BME280_humidity;BME280_pressure;Samples;Min_cycle;Max_cycle;Signal;HPM_P1;HPM_P2
2022/11/01 00:01:20;;;;;;;1.23;0.80;;;;;;;;;;4984088;28;20061;-73
2022/11/01 00:03:46;;;;;;;0.70;0.70;;;;;;;;;;4984280;28;20475;-74
2022/11/01 00:06:12;;;;;;;0.80;0.80;;;;;;;;;;4984051;28;20391;-73
2022/11/01 00:08:37;;;;;;;1.97;0.80;;;;;;;;;;4984952;28;20496;-73
2022/11/01 00:11:06;;;;;;;1.17;0.70;;;;;;;;;;4985416;28;20056;-73
2022/11/01 00:13:31;;;;;;;2.50;1.00;;;;;;;;;;5017803;28;20041;-73
2022/11/01 00:15:57;;;;;;;1.03;0.73;;;;;;;;;;4985013;28;20037;-74
2022/11/01 00:18:25;;;;;;;0.70;0.70;;;;;;;;;;4984939;28;20382;-74
2022/11/01 00:20:51;;;;;;;1.05;0.75;;;;;;;;;;4984975;28;20467;-73
2022/11/01 00:23:16;;;;;;;1.70;0.70;;;;;;;;;;5001647;28;20052;-74
2022/11/01 00:25:42;;;;;;;1.10;0.63;;;;;;;;;;4984788;28;20095;-73
2022/11/01 00:28:08;;;;;;;0.77;0.77;;;;;;;;;;4984703;28;20045;-72
2022/11/01 00:30:37;;;;;;;1.00;0.90;;;;;;;;;;4984614;28;20069;-73
2022/11/01 00:33:03;;;;;;;1.27;0.80;;;;;;;;;;4984610;28;20033;-74
2022/11/01 00:35:31;;;;;;;0.87;0.80;;;;;;;;;;4985030;28;20076;-74
2022/11/01 00:37:58;;;;;;;1.23;0.73;;;;;;;;;;5000503;28;20135;-74
2022/11/01 00:40:25;;;;;;;0.80;0.70;;;;;;;;;;5001098;28;20096;-72
2022/11/01 00:42:51;;;;;;;0.70;0.70;;;;;;;;;;4984672;28;20480;-72
2022/11/01 00:45:17;;;;;;;2.60;0.80;;;;;;;;;;4984627;28;20131;-72
2022/11/01 00:47:44;;;;;;;0.70;0.70;;;;;;;;;;5016926;28;20407;-73
2022/11/01 00:50:10;;;;;;;2.20;0.70;;;;;;;;;;4984298;28;20029;-74
2022/11/01 00:52:36;;;;;;;0.80;0.80;;;;;;;;;;4984085;28;20034;-73
2022/11/01 00:55:01;;;;;;;5.77;1.10;;;;;;;;;;4984513;28;20045;-73
2022/11/01 00:57:27;;;;;;;0.80;0.80;;;;;;;;;;4984332;28;20517;-73
2022/11/01 00:59:53;;;;;;;0.90;0.80;;;;;;;;;;4984010;28;20029;-74
2022/11/01 01:02:18;;;;;;;2.67;0.90;;;;;;;;;;4984239;28;20030;-74
2022/11/01 01:04:47;;;;;;;0.93;0.77;;;;;;;;;;5000179;28;20128;-73
2022/11/01 01:07:12;;;;;;;1.87;0.90;;;;;;;;;;5034066;28;20597;-74
2022/11/01 01:09:38;;;;;;;1.27;0.90;;;;;;;;;;4983545;28;20509;-74
2022/11/01 01:12:04;;;;;;;1.13;0.97;;;;;;;;;;5000162;28;20034;-74
2022/11/01 01:14:30;;;;;;;2.20;0.90;;;;;;;;;;4999931;28;20044;-73
2022/11/01 01:16:56;;;;;;;1.00;0.90;;;;;;;;;;5000106;28;20128;-72
2022/11/01 01:19:21;;;;;;;0.70;0.70;;;;;;;;;;4984169;28;20041;-73
2022/11/01 01:21:47;;;;;;;1.25;0.70;;;;;;;;;;4983758;28;20069;-73
2022/11/01 01:24:14;;;;;;;1.27;0.70;;;;;;;;;;4984128;28;20037;-73
2022/11/01 01:26:39;;;;;;;3.17;0.90;;;;;;;;;;4983727;28;20506;-72
2022/11/01 01:29:05;;;;;;;0.85;0.85;;;;;;;;;;4979392;28;20034;-72
2022/11/01 01:31:31;;;;;;;0.75;0.75;;;;;;;;;;4996041;28;20542;-72
2022/11/01 01:33:57;;;;;;;0.70;0.70;;;;;;;;;;4996196;28;20053;-73
2022/11/01 01:36:23;;;;;;;0.93;0.80;;;;;;;;;;4996935;28;20080;-72
2022/11/01 01:38:50;;;;;;;1.47;0.90;;;;;;;;;;4996867;28;20513;-72
2022/11/01 01:44:02;;;;;;;0.90;0.90;;;;;;;;;;4980741;28;20135;-72
2022/11/01 01:46:27;;;;;;;2.73;1.07;;;;;;;;;;4982591;28;20033;-72
2022/11/01 01:48:57;;;;;;;1.08;0.80;;;;;;;;;;4997639;28;20037;-73
2022/11/01 01:51:25;;;;;;;1.43;0.77;;;;;;;;;;5012674;28;20389;-72
2022/11/01 01:53:52;;;;;;;1.33;0.90;;;;;;;;;;4996442;28;20065;-73
2022/11/01 01:56:35;;;;;;;1.43;0.80;;;;;;;;;;4979866;28;20056;-73
2022/11/01 01:59:03;;;;;;;1.83;0.90;;;;;;;;;;4995783;28;20037;-73
2022/11/01 02:01:29;;;;;;;0.70;0.70;;;;;;;;;;4996000;28;20056;-74
2022/11/01 02:03:59;;;;;;;0.80;0.80;;;;;;;;;;4995804;28;20472;-73
2022/11/01 02:06:26;;;;;;;1.10;0.97;;;;;;;;;;4996329;28;20033;-74
2022/11/01 02:08:54;;;;;;;1.08;0.80;;;;;;;;;;4995760;28;20038;-72
2022/11/01 02:11:20;;;;;;;0.93;0.70;;;;;;;;;;4979515;28;20038;-72
2022/11/01 02:13:46;;;;;;;1.07;0.87;;;;;;;;;;4995787;28;20034;-72
2022/11/01 02:16:18;;;;;;;1.63;1.00;;;;;;;;;;4979505;28;20038;-72
2022/11/01 02:18:48;;;;;;;1.33;0.80;;;;;;;;;;4979362;28;20076;-72
2022/11/01 02:21:20;;;;;;;0.90;0.90;;;;;;;;;;4978593;28;20341;-74
2022/11/01 02:23:57;;;;;;;0.90;0.90;;;;;;;;;;4979345;28;20037;-73
2022/11/01 02:26:49;;;;;;;1.80;0.90;;;;;;;;;;4979644;28;20417;-73
2022/11/01 02:29:18;;;;;;;1.10;0.83;;;;;;;;;;4995412;28;20107;-74
2022/11/01 02:32:02;;;;;;;1.20;1.10;;;;;;;;;;4979361;28;20484;-73
2022/11/01 02:34:30;;;;;;;1.77;1.00;;;;;;;;;;4999777;28;20056;-73
2022/11/01 02:37:10;;;;;;;0.93;0.70;;;;;;;;;;5002320;28;20087;-74
2022/11/01 02:39:38;;;;;;;0.87;0.80;;;;;;;;;;5034699;28;20490;-74
2022/11/01 02:42:08;;;;;;;3.03;1.20;;;;;;;;;;5018179;28;20127;-74
2022/11/01 02:44:40;;;;;;;1.85;1.00;;;;;;;;;;5018285;28;20043;-73
2022/11/01 02:47:07;;;;;;;0.80;0.77;;;;;;;;;;5018034;28;20044;-73
2022/11/01 02:49:40;;;;;;;0.80;0.80;;;;;;;;;;5001736;28;20060;-73
2022/11/01 02:52:07;;;;;;;1.40;0.90;;;;;;;;;;5001718;28;20051;-72
2022/11/01 02:54:37;;;;;;;1.93;1.00;;;;;;;;;;5034438;28;20068;-72
2022/11/01 02:57:14;;;;;;;1.97;1.23;;;;;;;;;;5017021;28;20037;-73
2022/11/01 02:59:44;;;;;;;1.33;0.87;;;;;;;;;;5032850;28;20200;-72
2022/11/01 03:02:38;;;;;;;3.70;1.25;;;;;;;;;;5033317;28;20081;-72
2022/11/01 03:05:06;;;;;;;2.83;1.10;;;;;;;;;;5016681;28;20090;-73
2022/11/01 03:07:32;;;;;;;1.00;1.00;;;;;;;;;;5000704;28;20040;-73
2022/11/01 03:09:59;;;;;;;1.00;1.00;;;;;;;;;;5001034;28;20069;-73
2022/11/01 03:12:27;;;;;;;2.93;1.03;;;;;;;;;;5001517;28;20041;-72
2022/11/01 03:14:59;;;;;;;1.10;1.03;;;;;;;;;;5001323;28;20082;-73
2022/11/01 03:17:45;;;;;;;0.97;0.97;;;;;;;;;;5034546;28;20090;-74
2022/11/01 03:20:16;;;;;;;1.10;1.00;;;;;;;;;;5001364;28;20127;-73
2022/11/01 03:22:48;;;;;;;1.30;1.02;;;;;;;;;;5001534;28;20043;-73
2022/11/01 03:25:38;;;;;;;1.57;1.00;;;;;;;;;;5017827;28;20037;-73
2022/11/01 03:28:30;;;;;;;1.10;1.00;;;;;;;;;;5001111;28;20052;-73
2022/11/01 03:30:58;;;;;;;1.67;1.00;;;;;;;;;;5015550;28;20036;-74
2022/11/01 03:33:24;;;;;;;1.33;1.00;;;;;;;;;;5004589;28;20467;-74
2022/11/01 03:35:53;;;;;;;1.43;1.30;;;;;;;;;;5005289;28;20493;-73
2022/11/01 03:38:20;;;;;;;1.87;1.30;;;;;;;;;;5021280;28;20029;-73
2022/11/01 03:40:48;;;;;;;3.10;1.00;;;;;;;;;;5004864;28;20036;-72
2022/11/01 03:43:15;;;;;;;1.70;1.00;;;;;;;;;;5005046;28;20033;-73
2022/11/01 03:45:41;;;;;;;1.53;0.90;;;;;;;;;;5037559;28;20033;-73
2022/11/01 03:48:08;;;;;;;1.30;1.10;;;;;;;;;;5004829;28;20475;-73
2022/11/01 03:50:34;;;;;;;3.90;1.17;;;;;;;;;;5021246;28;20060;-73
2022/11/01 03:53:00;;;;;;;1.70;1.30;;;;;;;;;;5005387;28;20064;-72
2022/11/01 03:55:25;;;;;;;2.63;1.30;;;;;;;;;;5004885;28;20045;-72
2022/11/01 03:57:52;;;;;;;2.77;1.00;;;;;;;;;;5004808;28;20991;-76
2022/11/01 04:00:19;;;;;;;1.63;1.30;;;;;;;;;;5021122;28;20039;-71
2022/11/01 04:02:45;;;;;;;2.27;1.33;;;;;;;;;;5055138;28;20107;-74
2022/11/01 04:05:11;;;;;;;3.23;1.27;;;;;;;;;;5004828;28;20041;-74
2022/11/01 04:07:37;;;;;;;3.40;1.30;;;;;;;;;;5004628;28;20084;-73
2022/11/01 04:10:03;;;;;;;2.80;1.40;;;;;;;;;;5021247;28;20083;-72
2022/11/01 04:12:29;;;;;;;5.43;1.10;;;;;;;;;;5037900;28;20457;-73
2022/11/01 04:20:32;;;;;;;2.93;1.60;;;;;;;;;;5020892;28;20033;-77
2022/11/01 04:23:05;;;;;;;2.43;1.70;;;;;;;;;;5021075;28;20045;-76
2022/11/01 04:25:31;;;;;;;2.33;1.50;;;;;;;;;;5004668;28;20530;-76
2022/11/01 04:27:57;;;;;;;5.40;1.40;;;;;;;;;;5004190;28;20048;-76
2022/11/01 04:30:23;;;;;;;2.30;1.93;;;;;;;;;;5004231;28;20135;-76
2022/11/01 04:32:49;;;;;;;4.40;1.50;;;;;;;;;;5004353;28;20107;-76
2022/11/01 04:35:16;;;;;;;6.13;2.30;;;;;;;;;;5004398;28;20064;-78
2022/11/01 04:37:42;;;;;;;2.43;1.70;;;;;;;;;;5004701;28;20040;-77
2022/11/01 04:40:08;;;;;;;4.63;1.93;;;;;;;;;;5020774;28;20483;-76
2022/11/01 04:42:37;;;;;;;4.63;1.93;;;;;;;;;;5005109;28;20140;-78
2022/11/01 04:45:03;;;;;;;3.83;1.60;;;;;;;;;;5021673;28;20029;-76
2022/11/01 04:47:29;;;;;;;2.83;2.10;;;;;;;;;;5028094;28;20055;-77
2022/11/01 04:49:55;;;;;;;3.40;1.93;;;;;;;;;;5010925;28;20040;-74
2022/11/01 04:52:21;;;;;;;4.87;2.00;;;;;;;;;;5039416;28;20037;-77
2022/11/01 04:54:47;;;;;;;3.57;1.93;;;;;;;;;;5020640;28;20029;-79
2022/11/01 04:57:23;;;;;;;3.60;2.00;;;;;;;;;;5020840;28;20060;-76
2022/11/01 04:59:48;;;;;;;3.07;2.10;;;;;;;;;;5004086;28;20044;-78
2022/11/01 05:02:14;;;;;;;3.13;1.87;;;;;;;;;;5004177;28;20055;-71
2022/11/01 05:04:40;;;;;;;8.07;2.10;;;;;;;;;;5036265;28;20124;-70
2022/11/01 05:07:05;;;;;;;9.47;1.90;;;;;;;;;;5035779;28;20544;-67
2022/11/01 05:09:31;;;;;;;2.50;1.83;;;;;;;;;;5034400;28;20144;-68
2022/11/01 05:11:57;;;;;;;3.40;2.20;;;;;;;;;;5033817;28;20033;-67
2022/11/01 05:14:22;;;;;;;6.00;1.70;;;;;;;;;;5001834;28;20505;-69
2022/11/01 05:16:48;;;;;;;3.67;2.00;;;;;;;;;;5028612;28;20032;-68
2022/11/01 05:19:14;;;;;;;6.07;2.50;;;;;;;;;;5000211;28;20036;-68
2022/11/01 05:21:40;;;;;;;4.83;1.80;;;;;;;;;;4989725;28;20057;-68
2022/11/01 05:24:06;;;;;;;3.97;1.73;;;;;;;;;;4963462;28;20075;-68
2022/11/01 05:26:32;;;;;;;3.07;2.00;;;;;;;;;;4983532;28;20041;-67
2022/11/01 05:28:57;;;;;;;4.30;1.93;;;;;;;;;;5014956;28;20124;-68
2022/11/01 05:31:23;;;;;;;5.87;2.07;;;;;;;;;;4998595;28;20041;-68
2022/11/01 05:33:51;;;;;;;6.17;2.03;;;;;;;;;;4982264;28;20054;-68
2022/11/01 05:36:17;;;;;;;4.20;2.20;;;;;;;;;;4999090;28;20040;-67
2022/11/01 05:38:42;;;;;;;5.20;2.40;;;;;;;;;;4978829;28;20053;-67
2022/11/01 05:41:08;;;;;;;4.03;2.50;;;;;;;;;;4995075;28;20456;-67
2022/11/01 05:43:34;;;;;;;3.67;2.30;;;;;;;;;;4977650;28;20033;-67
2022/11/01 05:46:02;;;;;;;5.20;1.97;;;;;;;;;;4982140;28;20083;-69
2022/11/01 05:48:27;;;;;;;3.03;1.93;;;;;;;;;;4971032;28;20435;-68
2022/11/01 05:50:53;;;;;;;3.90;2.23;;;;;;;;;;4978259;28;20033;-73
2022/11/01 05:53:18;;;;;;;2.72;2.00;;;;;;;;;;4967084;28;20161;-67
2022/11/01 05:55:44;;;;;;;4.50;2.07;;;;;;;;;;4962658;28;20483;-67
2022/11/01 05:58:09;;;;;;;6.90;2.00;;;;;;;;;;4997813;28;20104;-67
2022/11/01 06:00:35;;;;;;;7.55;1.90;;;;;;;;;;4998192;28;20052;-67
2022/11/01 06:03:01;;;;;;;5.03;2.07;;;;;;;;;;4982066;28;20048;-67
2022/11/01 06:05:27;;;;;;;7.80;2.20;;;;;;;;;;5013933;28;20029;-68
2022/11/01 06:07:53;;;;;;;8.18;2.30;;;;;;;;;;4997789;28;20538;-67
2022/11/01 06:10:18;;;;;;;8.57;2.53;;;;;;;;;;4978284;28;20055;-67
2022/11/01 06:12:44;;;;;;;6.15;2.00;;;;;;;;;;4977781;28;20030;-68
2022/11/01 06:15:10;;;;;;;2.90;2.00;;;;;;;;;;4989309;28;20586;-67
2022/11/01 06:17:38;;;;;;;5.55;2.28;;;;;;;;;;4997786;28;20423;-67
2022/11/01 06:20:04;;;;;;;5.07;2.50;;;;;;;;;;4973726;28;20033;-78
2022/11/01 06:22:30;;;;;;;13.40;5.25;;;;;;;;;;4995197;28;20045;-78
2022/11/01 06:24:56;;;;;;;7.40;2.65;;;;;;;;;;4963942;28;20584;-73
2022/11/01 06:27:22;;;;;;;2.22;1.70;;;;;;;;;;4978231;28;20392;-75
2022/11/01 06:29:48;;;;;;;3.45;1.85;;;;;;;;;;4978566;28;20103;-75
2022/11/01 06:32:14;;;;;;;3.25;1.70;;;;;;;;;;4962883;28;20041;-81
2022/11/01 06:34:40;;;;;;;4.13;2.05;;;;;;;;;;4962263;28;20140;-78
2022/11/01 06:37:05;;;;;;;2.85;1.70;;;;;;;;;;4978780;28;20061;-76
2022/11/01 06:39:31;;;;;;;3.85;1.90;;;;;;;;;;4981866;28;20037;-81
2022/11/01 06:41:57;;;;;;;4.28;2.00;;;;;;;;;;4977843;28;20034;-81
2022/11/01 06:44:24;;;;;;;2.60;2.10;;;;;;;;;;4962989;28;20038;-80
2022/11/01 06:46:50;;;;;;;5.03;1.95;;;;;;;;;;4969801;28;20399;-80
2022/11/01 06:49:15;;;;;;;4.40;1.85;;;;;;;;;;4981849;28;20033;-76
2022/11/01 06:51:41;;;;;;;7.65;1.80;;;;;;;;;;4976292;28;20416;-79
2022/11/01 06:54:08;;;;;;;3.20;1.60;;;;;;;;;;4994464;28;20464;-77
2022/11/01 06:56:34;;;;;;;4.03;1.45;;;;;;;;;;4967594;28;20037;-78
2022/11/01 06:59:00;;;;;;;6.93;1.63;;;;;;;;;;4997220;28;20032;-76
2022/11/01 07:01:28;;;;;;;6.60;2.22;;;;;;;;;;5034038;28;20482;-80
2022/11/01 07:03:55;;;;;;;4.72;1.83;;;;;;;;;;4998991;28;20040;-69
2022/11/01 07:06:23;;;;;;;2.22;1.65;;;;;;;;;;4980730;28;20039;-70
2022/11/01 07:08:49;;;;;;;4.28;1.90;;;;;;;;;;4993113;28;20045;-68
2022/11/01 07:11:14;;;;;;;3.10;1.70;;;;;;;;;;4993496;28;20030;-69
2022/11/01 07:13:40;;;;;;;10.18;2.30;;;;;;;;;;4980202;28;20091;-69
2022/11/01 07:16:06;;;;;;;5.43;2.20;;;;;;;;;;4981162;28;20084;-68
2022/11/01 07:18:32;;;;;;;8.45;2.47;;;;;;;;;;4991509;28;20040;-68
2022/11/01 07:21:00;;;;;;;6.65;2.33;;;;;;;;;;5010661;28;20049;-68
2022/11/01 07:23:25;;;;;;;5.03;1.90;;;;;;;;;;4980553;28;20494;-69
2022/11/01 07:25:51;;;;;;;25.45;3.13;;;;;;;;;;5013124;28;20044;-68
2022/11/01 07:28:17;;;;;;;2.92;1.83;;;;;;;;;;4996724;28;20110;-69
2022/11/01 07:30:46;;;;;;;4.13;1.60;;;;;;;;;;4976967;28;20034;-69
2022/11/01 07:33:11;;;;;;;5.15;1.90;;;;;;;;;;4961154;28;20508;-69
2022/11/01 07:35:37;;;;;;;7.32;1.75;;;;;;;;;;4991671;28;20041;-68
2022/11/01 07:38:03;;;;;;;2.63;1.73;;;;;;;;;;4981023;28;20034;-69
2022/11/01 07:40:29;;;;;;;4.18;1.83;;;;;;;;;;4993075;28;20030;-69
2022/11/01 07:42:55;;;;;;;6.43;1.95;;;;;;;;;;4961210;28;20095;-69
2022/11/01 07:45:21;;;;;;;5.43;2.00;;;;;;;;;;4970198;28;20376;-69
2022/11/01 07:47:47;;;;;;;6.55;1.90;;;;;;;;;;4996749;28;20037;-69
2022/11/01 07:50:13;;;;;;;6.32;2.00;;;;;;;;;;4993569;28;20523;-69
2022/11/01 07:52:38;;;;;;;4.32;1.70;;;;;;;;;;4977247;28;20453;-69
2022/11/01 07:55:04;;;;;;;3.92;1.73;;;;;;;;;;4995754;28;20030;-69
2022/11/01 07:57:30;;;;;;;4.70;1.80;;;;;;;;;;4996983;28;20088;-69
2022/11/01 07:59:56;;;;;;;4.95;1.70;;;;;;;;;;4980324;28;20030;-69
2022/11/01 08:02:21;;;;;;;16.10;6.00;;;;;;;;;;4977047;28;20042;-69
2022/11/01 08:04:47;;;;;;;4.93;2.17;;;;;;;;;;4993291;28;20048;-68
2022/11/01 08:07:12;;;;;;;5.78;1.65;;;;;;;;;;4976545;28;20049;-69
2022/11/01 08:09:38;;;;;;;4.90;1.70;;;;;;;;;;4980525;28;20025;-69
2022/11/01 08:12:04;;;;;;;6.00;1.75;;;;;;;;;;4967557;28;20069;-69
2022/11/01 08:14:29;;;;;;;2.67;1.50;;;;;;;;;;4961149;28;20030;-68
2022/11/01 08:16:59;;;;;;;5.10;1.55;;;;;;;;;;4996070;28;20063;-68
2022/11/01 08:19:25;;;;;;;4.00;1.80;;;;;;;;;;4998465;28;20041;-69
2022/11/01 08:21:58;;;;;;;3.55;1.80;;;;;;;;;;4984489;28;20276;-69
2022/11/01 08:24:24;;;;;;;2.92;1.95;;;;;;;;;;4984055;28;20060;-71
2022/11/01 08:26:50;;;;;;;11.88;3.33;;;;;;;;;;4980261;28;20486;-69
2022/11/01 08:29:16;;;;;;;5.25;2.03;;;;;;;;;;4996780;28;20069;-69
2022/11/01 08:31:42;;;;;;;4.85;2.00;;;;;;;;;;4997504;28;20384;-70
2022/11/01 08:34:08;;;;;;;6.03;1.73;;;;;;;;;;4983443;28;20065;-68
2022/11/01 08:36:33;;;;;;;6.25;2.00;;;;;;;;;;4983742;28;20033;-69
2022/11/01 08:38:59;;;;;;;9.38;1.70;;;;;;;;;;4979882;28;20133;-69
2022/11/01 08:41:27;;;;;;;6.43;1.80;;;;;;;;;;4996835;28;20483;-70
2022/11/01 08:43:52;;;;;;;7.35;1.98;;;;;;;;;;4978079;28;20456;-70
2022/11/01 08:46:18;;;;;;;4.45;1.73;;;;;;;;;;4979700;28;20061;-70
2022/11/01 08:48:46;;;;;;;5.78;2.13;;;;;;;;;;4982761;28;20041;-69
2022/11/01 08:51:12;;;;;;;8.30;1.90;;;;;;;;;;4999633;28;20042;-70
2022/11/01 08:53:37;;;;;;;3.72;2.03;;;;;;;;;;4999672;28;20103;-68
2022/11/01 08:56:03;;;;;;;5.50;1.77;;;;;;;;;;4999429;28;20119;-69
2022/11/01 08:58:28;;;;;;;11.60;2.00;;;;;;;;;;4997561;28;20365;-70
2022/11/01 09:00:54;;;;;;;5.18;1.70;;;;;;;;;;4983024;28;20094;-69
2022/11/01 09:03:22;;;;;;;3.28;1.45;;;;;;;;;;4992815;28;20102;-69
2022/11/01 09:05:47;;;;;;;5.88;1.70;;;;;;;;;;4994608;28;21127;-69
2022/11/01 09:08:13;;;;;;;5.70;1.58;;;;;;;;;;4999397;28;20141;-70
2022/11/01 09:10:38;;;;;;;3.63;1.67;;;;;;;;;;4979096;28;20034;-69
2022/11/01 09:13:04;;;;;;;4.85;1.70;;;;;;;;;;4979223;28;20452;-68
2022/11/01 09:15:30;;;;;;;3.80;1.70;;;;;;;;;;4974898;28;20715;-70
2022/11/01 09:17:55;;;;;;;4.55;1.70;;;;;;;;;;4982837;28;20051;-69
2022/11/01 09:20:22;;;;;;;3.15;1.45;;;;;;;;;;4974739;28;20034;-69
2022/11/01 09:22:51;;;;;;;4.53;1.60;;;;;;;;;;4996134;28;20404;-69
2022/11/01 09:25:17;;;;;;;3.55;1.63;;;;;;;;;;4998809;28;20399;-69
2022/11/01 09:27:42;;;;;;;5.15;1.60;;;;;;;;;;4998488;28;20045;-68
2022/11/01 09:30:09;;;;;;;7.00;1.33;;;;;;;;;;4997996;28;20164;-69
2022/11/01 09:32:35;;;;;;;2.25;1.42;;;;;;;;;;4983317;28;20048;-69
2022/11/01 09:35:00;;;;;;;8.43;1.77;;;;;;;;;;4982316;28;20053;-69
2022/11/01 09:37:26;;;;;;;4.63;1.80;;;;;;;;;;4998776;28;20524;-70
2022/11/01 09:39:52;;;;;;;5.90;1.70;;;;;;;;;;4998518;28;20092;-69
2022/11/01 09:42:21;;;;;;;7.57;1.90;;;;;;;;;;4970193;28;20107;-69
2022/11/01 09:44:49;;;;;;;5.13;1.63;;;;;;;;;;5012428;28;20419;-69
2022/11/01 09:47:20;;;;;;;9.05;1.90;;;;;;;;;;4978985;28;20914;-69
2022/11/01 09:49:48;;;;;;;3.67;1.50;;;;;;;;;;4978969;28;20076;-70
2022/11/01 09:52:18;;;;;;;6.75;2.38;;;;;;;;;;4979137;28;20503;-70
2022/11/01 09:54:43;;;;;;;3.13;1.73;;;;;;;;;;4962640;28;20072;-68
2022/11/01 09:57:28;;;;;;;8.52;2.05;;;;;;;;;;4998374;28;20065;-69
2022/11/01 09:59:56;;;;;;;3.65;1.30;;;;;;;;;;4978770;28;20471;-69
2022/11/01 10:02:40;;;;;;;5.00;1.75;;;;;;;;;;4993804;28;20406;-68
2022/11/01 10:05:19;;;;;;;5.80;1.40;;;;;;;;;;4978620;28;20034;-67
2022/11/01 10:07:54;;;;;;;3.78;1.40;;;;;;;;;;4993949;28;20061;-68
2022/11/01 10:10:25;;;;;;;5.10;1.50;;;;;;;;;;4996882;28;20048;-66
2022/11/01 10:13:07;;;;;;;5.47;1.45;;;;;;;;;;5012621;28;20076;-68
2022/11/01 10:15:51;;;;;;;5.60;1.80;;;;;;;;;;4977579;28;20045;-69
2022/11/01 10:18:23;;;;;;;4.00;1.50;;;;;;;;;;4977799;28;20371;-67
2022/11/01 10:20:48;;;;;;;2.85;1.63;;;;;;;;;;5012787;28;20041;-69
2022/11/01 10:23:15;;;;;;;4.25;1.40;;;;;;;;;;4981871;28;20384;-69
2022/11/01 10:25:43;;;;;;;4.70;1.50;;;;;;;;;;4976971;28;20037;-68
2022/11/01 10:28:12;;;;;;;5.30;1.73;;;;;;;;;;4994071;28;20367;-69
2022/11/01 10:30:45;;;;;;;4.82;1.67;;;;;;;;;;5026090;28;20029;-68
2022/11/01 10:33:26;;;;;;;5.10;1.85;;;;;;;;;;5013847;28;20052;-68
2022/11/01 10:36:01;;;;;;;4.65;1.92;;;;;;;;;;4977067;28;20041;-71
2022/11/01 10:38:26;;;;;;;7.55;1.90;;;;;;;;;;4978410;28;20948;-68
2022/11/01 10:40:59;;;;;;;7.55;3.25;;;;;;;;;;4978086;28;20041;-75
2022/11/01 10:43:25;;;;;;;2.72;2.03;;;;;;;;;;5010764;28;20045;-69
2022/11/01 10:45:52;;;;;;;2.35;1.50;;;;;;;;;;5002342;28;20038;-68
2022/11/01 10:48:38;;;;;;;7.38;1.67;;;;;;;;;;4998039;28;20041;-70
2022/11/01 10:51:05;;;;;;;19.50;5.38;;;;;;;;;;4978811;28;20039;-69
2022/11/01 10:53:36;;;;;;;12.50;3.30;;;;;;;;;;4977999;28;20037;-70
2022/11/01 10:56:07;;;;;;;15.25;7.85;;;;;;;;;;4980459;28;20041;-69
2022/11/01 10:58:33;;;;;;;;;;;;;;;;;;4999910;28;20029;-71
2022/11/01 11:01:00;;;;;;;16.63;6.03;;;;;;;;;;4997823;28;20409;-72
2022/11/01 11:03:28;;;;;;;9.93;2.67;;;;;;;;;;4981283;28;20794;-72
2022/11/01 11:05:54;;;;;;;8.50;1.90;;;;;;;;;;4980991;28;20045;-69
2022/11/01 11:08:22;;;;;;;7.65;2.80;;;;;;;;;;4993263;28;20144;-72
2022/11/01 11:10:48;;;;;;;6.45;2.33;;;;;;;;;;4994092;28;20030;-72
2022/11/01 11:13:21;;;;;;;4.85;2.38;;;;;;;;;;4981101;28;20125;-71
2022/11/01 11:15:47;;;;;;;6.13;2.40;;;;;;;;;;4993841;28;20061;-72
2022/11/01 11:18:32;;;;;;;4.95;1.88;;;;;;;;;;4969430;28;20073;-70
2022/11/01 11:21:00;;;;;;;11.73;2.28;;;;;;;;;;4978420;28;20083;-70
2022/11/01 11:23:28;;;;;;;3.80;2.03;;;;;;;;;;5015935;28;20044;-70
2022/11/01 11:26:02;;;;;;;3.47;1.67;;;;;;;;;;4996246;28;20041;-71
2022/11/01 11:28:29;;;;;;;11.15;2.25;;;;;;;;;;4992664;28;20077;-71
2022/11/01 11:30:57;;;;;;;3.40;2.00;;;;;;;;;;4993398;28;20045;-71
2022/11/01 11:33:23;;;;;;;6.05;2.28;;;;;;;;;;5012368;28;20158;-71
2022/11/01 11:35:54;;;;;;;6.10;2.00;;;;;;;;;;4996351;28;20551;-70
2022/11/01 11:38:38;;;;;;;6.63;2.15;;;;;;;;;;5012572;28;20045;-72
2022/11/01 11:41:04;;;;;;;10.50;2.50;;;;;;;;;;4976221;28;20096;-72
2022/11/01 11:43:35;;;;;;;13.70;2.72;;;;;;;;;;4971178;28;20835;-69
2022/11/01 11:46:05;;;;;;;4.72;2.63;;;;;;;;;;4994590;28;20033;-70
2022/11/01 11:48:31;;;;;;;5.40;2.40;;;;;;;;;;4960870;28;20060;-70
2022/11/01 11:51:04;;;;;;;9.77;3.15;;;;;;;;;;4960626;28;20075;-70
2022/11/01 11:53:32;;;;;;;4.95;2.30;;;;;;;;;;5010834;28;20037;-71
2022/11/01 11:56:02;;;;;;;3.97;2.35;;;;;;;;;;5012889;28;20037;-71
2022/11/01 11:58:31;;;;;;;8.47;2.17;;;;;;;;;;5029769;28;20037;-73
2022/11/01 12:01:00;;;;;;;7.00;2.70;;;;;;;;;;4981021;28;20281;-71
2022/11/01 12:03:26;;;;;;;9.20;2.25;;;;;;;;;;4964478;28;20463;-70
2022/11/01 12:05:54;;;;;;;5.97;2.22;;;;;;;;;;4996921;28;20038;-69
2022/11/01 12:08:43;;;;;;;6.00;2.00;;;;;;;;;;4964266;28;20049;-71
2022/11/01 12:11:12;;;;;;;4.28;1.90;;;;;;;;;;5008324;28;20056;-71
2022/11/01 12:13:42;;;;;;;5.00;2.55;;;;;;;;;;4964248;28;20049;-78
2022/11/01 12:16:28;;;;;;;6.45;2.80;;;;;;;;;;4964943;28;20048;-71
2022/11/01 12:18:55;;;;;;;13.23;4.45;;;;;;;;;;4963860;28;20052;-72
2022/11/01 12:21:25;;;;;;;9.02;3.45;;;;;;;;;;4964209;28;20441;-71
2022/11/01 12:23:53;;;;;;;8.05;2.33;;;;;;;;;;4980335;28;20124;-71
2022/11/01 12:26:21;;;;;;;8.18;2.30;;;;;;;;;;4963820;28;20076;-72
2022/11/01 12:28:54;;;;;;;6.35;2.28;;;;;;;;;;4984216;28;20041;-71
2022/11/01 12:31:20;;;;;;;10.38;3.05;;;;;;;;;;4972863;28;20124;-73
2022/11/01 12:33:53;;;;;;;5.90;2.60;;;;;;;;;;4991091;28;20061;-71
2022/11/01 12:36:21;;;;;;;4.57;2.10;;;;;;;;;;4989704;28;20293;-72
2022/11/01 12:38:53;;;;;;;4.95;2.28;;;;;;;;;;4973235;28;21383;-70
2022/11/01 12:41:28;;;;;;;7.78;2.10;;;;;;;;;;4978415;28;20046;-70
2022/11/01 12:43:53;;;;;;;3.03;2.05;;;;;;;;;;4974245;28;20083;-70
2022/11/01 12:46:31;;;;;;;11.40;2.55;;;;;;;;;;4981588;28;20116;-69
2022/11/01 12:49:05;;;;;;;6.70;2.30;;;;;;;;;;4982783;28;20049;-70
2022/11/01 12:51:33;;;;;;;7.18;2.38;;;;;;;;;;4999255;28;20037;-69
2022/11/01 12:54:18;;;;;;;6.25;2.22;;;;;;;;;;4982286;28;20042;-69
2022/11/01 12:56:44;;;;;;;7.60;2.15;;;;;;;;;;4987114;28;20040;-69
2022/11/01 12:59:12;;;;;;;7.45;2.50;;;;;;;;;;5017945;28;20032;-69
2022/11/01 13:01:58;;;;;;;6.45;2.08;;;;;;;;;;5018830;28;20182;-68
2022/11/01 13:04:29;;;;;;;5.00;2.25;;;;;;;;;;5017712;28;20044;-68
2022/11/01 13:07:07;;;;;;;5.63;2.20;;;;;;;;;;5001879;28;20414;-69
2022/11/01 13:09:39;;;;;;;9.90;2.10;;;;;;;;;;5001386;28;20475;-68
2022/11/01 13:12:23;;;;;;;4.63;2.22;;;;;;;;;;5001872;28;20505;-70
2022/11/01 13:14:49;;;;;;;9.88;2.70;;;;;;;;;;5002221;28;20479;-69
2022/11/01 13:17:33;;;;;;;8.95;2.65;;;;;;;;;;5001438;28;20067;-69
2022/11/01 13:20:17;;;;;;;6.68;2.40;;;;;;;;;;5001360;28;20067;-69
2022/11/01 13:22:46;;;;;;;4.80;2.33;;;;;;;;;;5018483;28;20029;-68
2022/11/01 13:25:17;;;;;;;3.13;1.90;;;;;;;;;;5001535;28;20516;-69
2022/11/01 13:27:50;;;;;;;3.13;2.08;;;;;;;;;;5001269;28;20072;-69
2022/11/01 13:30:18;;;;;;;4.90;2.38;;;;;;;;;;5001478;28;20044;-68
2022/11/01 13:33:02;;;;;;;4.00;2.22;;;;;;;;;;5034523;28;20127;-69
2022/11/01 13:35:43;;;;;;;6.30;2.20;;;;;;;;;;5017838;28;20139;-68
2022/11/01 13:38:09;;;;;;;4.15;2.10;;;;;;;;;;5001219;28;20037;-67
2022/11/01 13:40:40;;;;;;;19.42;3.80;;;;;;;;;;5001809;28;20044;-68
2022/11/01 13:43:06;;;;;;;4.75;2.08;;;;;;;;;;5002191;28;20087;-68
2022/11/01 13:45:50;;;;;;;6.00;2.20;;;;;;;;;;5017751;28;20418;-68
2022/11/01 13:48:37;;;;;;;9.60;3.80;;;;;;;;;;5017689;28;20068;-69
2022/11/01 13:51:03;;;;;;;12.50;2.90;;;;;;;;;;4972472;28;20041;-69
2022/11/01 13:53:45;;;;;;;4.80;2.40;;;;;;;;;;4963356;28;20040;-69
2022/11/01 13:56:21;;;;;;;8.07;2.33;;;;;;;;;;4976796;28;20568;-67
2022/11/01 13:58:47;;;;;;;7.38;2.20;;;;;;;;;;4972237;28;20037;-67
2022/11/01 14:01:24;;;;;;;4.30;2.20;;;;;;;;;;5027494;28;20091;-68
2022/11/01 14:04:13;;;;;;;6.72;2.20;;;;;;;;;;4969192;28;20436;-68
2022/11/01 14:06:40;;;;;;;11.93;2.30;;;;;;;;;;5011891;28;20142;-68
2022/11/01 14:09:28;;;;;;;2.58;2.00;;;;;;;;;;4970078;28;20060;-68
2022/11/01 14:11:55;;;;;;;8.60;2.33;;;;;;;;;;4977662;28;20420;-68
2022/11/01 14:14:30;;;;;;;12.73;2.08;;;;;;;;;;4977510;28;20025;-69
2022/11/01 14:17:15;;;;;;;7.75;2.63;;;;;;;;;;4976505;28;20037;-68
2022/11/01 14:19:46;;;;;;;4.95;2.20;;;;;;;;;;4977333;28;20076;-69
2022/11/01 14:22:11;;;;;;;;;;;;;;;;;;4994615;28;20033;-68
2022/11/01 14:24:51;;;;;;;12.63;2.23;;;;;;;;;;4995647;28;20274;-68
2022/11/01 14:27:19;;;;;;;7.22;2.47;;;;;;;;;;5000632;28;20037;-70
2022/11/01 14:29:49;;;;;;;8.57;3.50;;;;;;;;;;4986025;28;20128;-68
2022/11/01 14:32:15;;;;;;;9.02;4.38;;;;;;;;;;4996213;28;20044;-67
2022/11/01 14:34:44;;;;;;;10.00;3.90;;;;;;;;;;4994763;28;20491;-68
2022/11/01 14:37:15;;;;;;;11.23;2.70;;;;;;;;;;5000789;28;20041;-68
2022/11/01 14:39:45;;;;;;;5.05;2.58;;;;;;;;;;4985730;28;20029;-69
2022/11/01 14:42:13;;;;;;;12.35;2.53;;;;;;;;;;4998096;28;20033;-68
2022/11/01 14:44:44;;;;;;;6.05;2.28;;;;;;;;;;5002133;28;20463;-68
2022/11/01 14:47:33;;;;;;;3.53;2.05;;;;;;;;;;4967636;28;20137;-66
2022/11/01 14:50:01;;;;;;;5.70;2.30;;;;;;;;;;4960001;28;20034;-65
2022/11/01 14:52:31;;;;;;;8.43;2.70;;;;;;;;;;4985675;28;20025;-65
2022/11/01 14:55:13;;;;;;;11.07;2.80;;;;;;;;;;4975937;28;20139;-67
2022/11/01 14:57:38;;;;;;;10.35;3.00;;;;;;;;;;4997601;28;20108;-68
2022/11/01 15:00:22;;;;;;;10.20;2.78;;;;;;;;;;5018773;28;20072;-68
2022/11/01 15:02:48;;;;;;;7.25;3.08;;;;;;;;;;4967741;28;20119;-67